This is the latest recevied weather packets stored in our database for station/object CT2HRB-13. If no packets are shown the sender has not sent any weather packets the latest 10 day(s).
| Time | Temp. | Humidity | Pressure | Rain* | Wind** | Luminosity | Snow |
|---|---|---|---|---|---|---|---|
| 1777655701 | 20° C | 53% | 1017.8 hPa | - | - | - | - |
| 1777655402 | 20° C | 52% | 1017.8 hPa | - | - | - | - |
| 1777655102 | 20° C | 53% | 1017.7 hPa | - | - | - | - |
| 1777654802 | 20.56° C | 53% | 1017.9 hPa | - | - | - | - |
| 1777654502 | 20.56° C | 52% | 1017.7 hPa | - | - | - | - |
| 1777654202 | 21.11° C | 51% | 1017.5 hPa | - | - | - | - |
| 1777653901 | 21.67° C | 50% | 1017.7 hPa | - | - | - | - |
| 1777653601 | 21.67° C | 50% | 1018 hPa | - | - | - | - |
| 1777653301 | 21.67° C | 50% | 1017.7 hPa | - | - | - | - |
| 1777653002 | 21.67° C | 50% | 1017.8 hPa | - | - | - | - |
| 1777652701 | 21.67° C | 50% | 1017.7 hPa | - | - | - | - |
| 1777652402 | 21.67° C | 50% | 1017.7 hPa | - | - | - | - |
| 1777652102 | 21.11° C | 51% | 1017.9 hPa | - | - | - | - |
| 1777651802 | 21.11° C | 51% | 1017.9 hPa | - | - | - | - |
| 1777651502 | 21.11° C | 49% | 1018 hPa | - | - | - | - |
| 1777651202 | 21.67° C | 48% | 1017.9 hPa | - | - | - | - |
| 1777650901 | 21.67° C | 49% | 1017.8 hPa | - | - | - | - |
| 1777650602 | 21.67° C | 48% | 1017.7 hPa | - | - | - | - |
| 1777650302 | 22.22° C | 48% | 1017.6 hPa | - | - | - | - |
| 1777650001 | 21.67° C | 50% | 1017.7 hPa | - | - | - | - |
| 1777649701 | 22.22° C | 48% | 1017.6 hPa | - | - | - | - |
| 1777649402 | 22.22° C | 46% | 1017.8 hPa | - | - | - | - |
| 1777649101 | 22.78° C | 46% | 1017.6 hPa | - | - | - | - |
| 1777648801 | 22.78° C | 47% | 1017.9 hPa | - | - | - | - |
| 1777648501 | 23.33° C | 44% | 1017.9 hPa | - | - | - | - |
* Rain since midnight (hover to see other rain measurements)
** Current wind speed in m/s (hover to see current wind gust speed)